createdAt,value
2023-04-15T00:00:29.192Z,2.6143
2023-04-15T00:01:37.275Z,2.2643
2023-04-15T00:02:45.276Z,2.4929
2023-04-15T00:03:53.484Z,2.3643
2023-04-15T00:05:01.383Z,2.4214
2023-04-15T00:06:09.459Z,2.7214
2023-04-15T00:07:17.515Z,2.7571
2023-04-15T00:08:25.696Z,2.2571
2023-04-15T00:09:33.657Z,2.2214
2023-04-15T00:10:41.611Z,2.2929
2023-04-15T00:11:49.815Z,2.1714
2023-04-15T00:12:57.952Z,2.2143
2023-04-15T00:14:05.807Z,2.0500
2023-04-15T00:15:14.003Z,2.1429
2023-04-15T00:16:22.110Z,2.4643
2023-04-15T00:17:30.122Z,2.4143
2023-04-15T00:18:38.173Z,2.3286
2023-04-15T00:19:46.277Z,2.4786
2023-04-15T00:20:54.352Z,2.6429
2023-04-15T00:22:02.468Z,2.4500
2023-04-15T00:23:10.396Z,2.4214
2023-04-15T00:24:18.665Z,2.2429
2023-04-15T00:25:26.627Z,2.2643
2023-04-15T00:26:34.598Z,2.4357
2023-04-15T00:27:42.760Z,2.3071
2023-04-15T00:28:50.792Z,2.3714
2023-04-15T00:29:58.840Z,2.3500
2023-04-15T00:31:06.960Z,2.2857
2023-04-15T00:32:14.994Z,2.2929
2023-04-15T00:33:23.008Z,2.3857
2023-04-15T00:34:30.995Z,2.6500
2023-04-15T00:35:39.324Z,2.4143
2023-04-15T00:36:47.257Z,2.3500
2023-04-15T00:37:55.298Z,2.4571
2023-04-15T00:39:03.409Z,2.2714
2023-04-15T00:40:11.423Z,2.2857
2023-04-15T00:41:19.497Z,2.1143
2023-04-15T00:42:27.472Z,2.3000
2023-04-15T00:43:35.713Z,2.3571
2023-04-15T00:44:43.688Z,2.5500
2023-04-15T00:45:51.858Z,2.4286
2023-04-15T00:46:59.902Z,2.3071
2023-04-15T00:48:07.922Z,2.5786
2023-04-15T00:49:16.094Z,2.4714
2023-04-15T00:50:24.027Z,2.5786
2023-04-15T00:51:32.264Z,2.3429
2023-04-15T00:52:40.190Z,2.3000
2023-04-15T00:53:48.237Z,2.4357
2023-04-15T00:54:56.344Z,2.5000
2023-04-15T00:56:04.393Z,2.6357
2023-04-15T00:57:12.426Z,2.5714
2023-04-15T00:58:20.495Z,2.5286
2023-04-15T00:59:28.676Z,2.4214
2023-04-15T01:00:36.651Z,2.4857
2023-04-15T01:01:44.893Z,2.4286
2023-04-15T01:02:53.041Z,2.2429
2023-04-15T01:04:00.846Z,2.3500
2023-04-15T01:05:08.893Z,2.4429
2023-04-15T01:06:16.994Z,2.3143
2023-04-15T01:07:25.050Z,2.3143
2023-04-15T01:08:33.065Z,2.0214
2023-04-15T01:09:41.172Z,2.2714
2023-04-15T01:10:49.350Z,2.0429
2023-04-15T01:11:57.277Z,2.5786
2023-04-15T01:13:05.353Z,2.2071
2023-04-15T01:14:13.567Z,2.3500
2023-04-15T01:15:21.501Z,2.6786
2023-04-15T01:16:29.721Z,2.1571
2023-04-15T01:17:37.795Z,2.4500
2023-04-15T01:18:45.794Z,2.1643
2023-04-15T01:19:53.831Z,2.3214
2023-04-15T01:21:01.875Z,2.2571
2023-04-15T01:22:09.953Z,2.1214
2023-04-15T01:23:18.138Z,2.1929
2023-04-15T01:24:26.059Z,2.1143
2023-04-15T01:25:34.071Z,2.1929
2023-04-15T01:26:43.505Z,2.1214
2023-04-15T01:27:50.291Z,2.1571
2023-04-15T01:28:58.458Z,2.3857
2023-04-15T01:30:06.433Z,2.1000
2023-04-15T01:31:14.483Z,2.1643
2023-04-15T01:32:22.563Z,2.0500
2023-04-15T01:33:30.597Z,2.2000
2023-04-15T01:34:38.561Z,1.9000
2023-04-15T01:35:46.732Z,2.2143
2023-04-15T01:36:54.767Z,2.2071
2023-04-15T01:38:02.984Z,2.0786
2023-04-15T01:39:10.895Z,2.1929
2023-04-15T01:40:18.994Z,2.0500
2023-04-15T01:41:27.068Z,2.1000
2023-04-15T01:42:35.253Z,2.1357
2023-04-15T01:43:43.168Z,1.9857
2023-04-15T01:44:51.234Z,2.0357
2023-04-15T01:45:59.233Z,2.1500
2023-04-15T01:47:07.358Z,1.9643
2023-04-15T01:48:15.470Z,1.9714
2023-04-15T01:49:23.563Z,2.1643
2023-04-15T01:50:31.559Z,1.8571
2023-04-15T01:51:39.791Z,2.0286
2023-04-15T01:52:47.692Z,2.0714
2023-04-15T01:53:55.710Z,1.9500
2023-04-15T01:55:03.850Z,1.9143
2023-04-15T01:56:11.874Z,2.1143
2023-04-15T01:57:20.053Z,2.1071
2023-04-15T01:58:28.030Z,2.0000
2023-04-15T01:59:36.246Z,1.9429
2023-04-15T02:00:44.219Z,2.0429
2023-04-15T02:01:52.283Z,1.8643
2023-04-15T02:03:00.423Z,2.0500
2023-04-15T02:04:08.449Z,2.1214
2023-04-15T02:05:16.395Z,1.9286
2023-04-15T02:06:24.492Z,1.9643
2023-04-15T02:07:32.567Z,2.0143
2023-04-15T02:08:40.814Z,2.3357
2023-04-15T02:09:48.693Z,2.1286
2023-04-15T02:10:56.782Z,2.0929
2023-04-15T02:12:04.829Z,2.1500
2023-04-15T02:13:13.010Z,2.0429
2023-04-15T02:14:20.977Z,2.0643
2023-04-15T02:15:29.103Z,2.1357
2023-04-15T02:16:37.058Z,2.2357
2023-04-15T02:17:45.197Z,2.4214
2023-04-15T02:18:53.388Z,2.0000
2023-04-15T02:20:01.310Z,2.0500
2023-04-15T02:21:09.525Z,2.1071
2023-04-15T02:22:17.373Z,1.9857
2023-04-15T02:23:25.562Z,1.7071
2023-04-15T02:24:33.649Z,2.0357
2023-04-15T02:25:41.714Z,1.9786
2023-04-15T02:26:49.716Z,2.2571
2023-04-15T02:27:57.797Z,2.0000
2023-04-15T02:29:06.039Z,2.0857
2023-04-15T02:30:14.014Z,2.1929
2023-04-15T02:31:22.095Z,2.0643
2023-04-15T02:32:30.140Z,2.0786
2023-04-15T02:33:38.304Z,2.1357
2023-04-15T02:34:46.272Z,2.0929
2023-04-15T02:35:54.371Z,1.9000
2023-04-15T02:37:02.607Z,2.2786
2023-04-15T02:38:10.464Z,2.3929
2023-04-15T02:39:18.562Z,2.0071
2023-04-15T02:40:26.607Z,1.6643
2023-04-15T02:41:34.800Z,1.6857
2023-04-15T02:42:42.803Z,1.5643
2023-04-15T02:43:50.798Z,1.5786
2023-04-15T02:44:58.944Z,1.5286
2023-04-15T02:46:07.003Z,1.3429
2023-04-15T02:47:15.002Z,1.5071
2023-04-15T02:48:22.987Z,1.3000
2023-04-15T02:49:31.126Z,1.2429
2023-04-15T02:50:39.821Z,1.2857
2023-04-15T02:51:47.285Z,1.2000
2023-04-15T02:52:55.393Z,1.2357
2023-04-15T02:54:03.383Z,1.2143
2023-04-15T02:55:11.439Z,1.1857
2023-04-15T02:56:19.646Z,1.2429
2023-04-15T02:57:27.691Z,1.0643
2023-04-15T02:58:35.641Z,1.1714
2023-04-15T02:59:43.709Z,1.2214
2023-04-15T03:00:51.908Z,1.2571
2023-04-15T03:01:59.914Z,1.2500
2023-04-15T03:03:08.075Z,1.3571
2023-04-15T03:04:16.232Z,1.3571
2023-04-15T03:05:24.038Z,1.2429
2023-04-15T03:06:32.186Z,1.2286
2023-04-15T03:07:40.213Z,1.3929
2023-04-15T03:08:48.380Z,1.2500
2023-04-15T03:09:56.311Z,1.1643
2023-04-15T03:11:04.370Z,1.2500
2023-04-15T03:12:12.597Z,1.3143
2023-04-15T03:13:20.613Z,1.2286
2023-04-15T03:14:28.597Z,1.2143
2023-04-15T03:15:36.685Z,1.0571
2023-04-15T03:16:44.754Z,1.3143
2023-04-15T03:17:52.756Z,1.2286
2023-04-15T03:19:01.193Z,1.4714
2023-04-15T03:20:09.089Z,1.2643
2023-04-15T03:21:16.981Z,1.3500
2023-04-15T03:22:24.957Z,1.3571
2023-04-15T03:23:33.236Z,1.3500
2023-04-15T03:24:41.323Z,1.1857
2023-04-15T03:25:49.263Z,1.2786
2023-04-15T03:26:57.295Z,1.2143
2023-04-15T03:28:05.457Z,1.3214
2023-04-15T03:29:13.393Z,1.1929
2023-04-15T03:30:21.552Z,1.0786
2023-04-15T03:31:29.675Z,1.1357
2023-04-15T03:32:37.659Z,1.1929
2023-04-15T03:33:45.859Z,1.1071
2023-04-15T03:34:53.710Z,1.1714
2023-04-15T03:36:01.855Z,0.9929
2023-04-15T03:37:09.901Z,0.9714
2023-04-15T03:38:17.997Z,0.8429
2023-04-15T03:39:25.997Z,1.0357
2023-04-15T03:40:34.098Z,0.9500
2023-04-15T03:41:42.128Z,0.9286
2023-04-15T03:42:50.401Z,1.0929
2023-04-15T03:43:58.272Z,1.1000
2023-04-15T03:45:06.345Z,1.2143
2023-04-15T03:46:14.365Z,1.1286
2023-04-15T03:47:22.514Z,1.2000
2023-04-15T03:48:30.531Z,1.2143
2023-04-15T03:49:38.609Z,1.3143
2023-04-15T03:50:46.595Z,1.1071
2023-04-15T03:51:54.721Z,1.2071
2023-04-15T03:53:02.931Z,1.0929
2023-04-15T03:54:10.788Z,1.0786
2023-04-15T03:55:18.943Z,1.0786
2023-04-15T03:56:26.923Z,1.1071
2023-04-15T03:57:35.070Z,1.0143
2023-04-15T03:58:43.119Z,0.9929
2023-04-15T03:59:51.152Z,1.0286
2023-04-15T04:00:59.231Z,1.2357
2023-04-15T04:02:07.647Z,1.0643
2023-04-15T04:03:15.559Z,0.9429
2023-04-15T04:04:23.534Z,1.0071
2023-04-15T04:05:31.472Z,1.1857
2023-04-15T04:06:39.590Z,1.0500
2023-04-15T04:07:47.552Z,1.0071
2023-04-15T04:08:55.743Z,1.0071
2023-04-15T04:10:03.862Z,0.9857
2023-04-15T04:11:11.867Z,1.0643
2023-04-15T04:12:19.904Z,1.0143
2023-04-15T04:13:28.157Z,1.0571
2023-04-15T04:14:36.041Z,1.2643
2023-04-15T04:15:44.159Z,1.0500
2023-04-15T04:16:52.188Z,0.9643
2023-04-15T04:18:00.403Z,1.0071
2023-04-15T04:19:08.312Z,0.9429
2023-04-15T04:20:16.426Z,0.8714
2023-04-15T04:21:24.666Z,0.9214
2023-04-15T04:22:32.521Z,0.9714
2023-04-15T04:23:40.592Z,1.0000
2023-04-15T04:24:48.670Z,0.9857
2023-04-15T04:25:56.863Z,1.0500
2023-04-15T04:27:04.858Z,0.9143
2023-04-15T04:28:12.887Z,0.9214
2023-04-15T04:29:21.030Z,0.9786
2023-04-15T04:30:29.023Z,0.9429
2023-04-15T04:31:37.150Z,1.0286
2023-04-15T04:32:45.244Z,0.9214
2023-04-15T04:33:53.324Z,0.9929
2023-04-15T04:35:01.280Z,0.9286
2023-04-15T04:36:09.360Z,0.7857
2023-04-15T04:37:17.511Z,0.7929
2023-04-15T04:38:25.594Z,0.7857
2023-04-15T04:39:33.576Z,0.7000
2023-04-15T04:40:41.620Z,0.8000
2023-04-15T04:41:49.731Z,0.7500
2023-04-15T04:42:57.750Z,0.6786
2023-04-15T04:44:05.842Z,0.7643
2023-04-15T04:45:13.944Z,0.6714
2023-04-15T04:46:21.879Z,0.8000
2023-04-15T04:47:30.045Z,0.8929
2023-04-15T04:48:38.079Z,0.7357
2023-04-15T04:49:46.265Z,0.8286
2023-04-15T04:50:54.218Z,0.9929
2023-04-15T04:52:02.322Z,0.8786
2023-04-15T04:53:10.421Z,1.0286
2023-04-15T04:54:18.341Z,0.7429
2023-04-15T04:55:26.472Z,0.8071
2023-04-15T04:56:34.670Z,0.7357
2023-04-15T04:57:42.623Z,0.6429
2023-04-15T04:58:50.821Z,0.7857
2023-04-15T04:59:58.756Z,0.8786
2023-04-15T05:01:06.853Z,0.7786
2023-04-15T05:02:14.893Z,0.8000
2023-04-15T05:03:23.068Z,0.7143
2023-04-15T05:04:31.052Z,0.9214
2023-04-15T05:05:39.050Z,0.8214
2023-04-15T05:06:47.131Z,0.7214
2023-04-15T05:07:55.382Z,0.8786
2023-04-15T05:09:03.474Z,0.8214
2023-04-15T05:10:11.399Z,0.8786
2023-04-15T05:11:19.335Z,0.8500
2023-04-15T05:12:27.635Z,0.7857
2023-04-15T05:13:35.555Z,0.8143
2023-04-15T05:14:43.604Z,0.7500
2023-04-15T05:15:51.887Z,0.7786
2023-04-15T05:16:59.758Z,0.7000
2023-04-15T05:18:07.889Z,0.8714
2023-04-15T05:19:15.866Z,0.9357
2023-04-15T05:20:24.025Z,0.8786
2023-04-15T05:21:31.991Z,0.8000
2023-04-15T05:22:40.131Z,1.0714
2023-04-15T05:23:48.049Z,0.8714
2023-04-15T05:24:56.202Z,0.8357
2023-04-15T05:26:04.256Z,0.8571
2023-04-15T05:27:12.376Z,0.8500
2023-04-15T05:28:20.360Z,0.8500
2023-04-15T05:29:28.386Z,0.8571
2023-04-15T05:30:36.557Z,1.1500
2023-04-15T05:31:44.699Z,0.7714
2023-04-15T05:32:52.734Z,0.7929
2023-04-15T05:34:00.753Z,0.8286
2023-04-15T05:35:08.936Z,0.8429
2023-04-15T05:36:16.861Z,0.8286
2023-04-15T05:37:24.975Z,1.2786
2023-04-15T05:38:33.078Z,0.8714
2023-04-15T05:39:41.127Z,0.7714
2023-04-15T05:40:49.206Z,1.1000
2023-04-15T05:41:57.193Z,0.8571
2023-04-15T05:43:05.486Z,0.9214
2023-04-15T05:44:13.324Z,0.9643
2023-04-15T05:45:21.312Z,0.9714
2023-04-15T05:46:29.484Z,0.9429
2023-04-15T05:47:37.776Z,0.9714
2023-04-15T05:48:45.589Z,0.9571
2023-04-15T05:49:53.717Z,0.8143
2023-04-15T05:51:01.779Z,0.8000
2023-04-15T05:52:09.810Z,0.8571
2023-04-15T05:53:17.901Z,0.9071
2023-04-15T05:54:25.931Z,0.8214
2023-04-15T05:55:34.016Z,0.7500
2023-04-15T05:56:42.091Z,0.7786
2023-04-15T05:57:50.088Z,0.7786
2023-04-15T05:58:58.304Z,0.7714
2023-04-15T06:00:06.214Z,0.9000
2023-04-15T06:01:14.377Z,1.1143
2023-04-15T06:02:22.532Z,0.7429
2023-04-15T06:03:30.647Z,0.8000
2023-04-15T06:04:38.731Z,0.9071
2023-04-15T06:05:46.568Z,0.8500
2023-04-15T06:06:54.850Z,0.8643
2023-04-15T06:08:02.869Z,0.8429
2023-04-15T06:09:10.854Z,0.9571
2023-04-15T06:10:18.895Z,0.9286
2023-04-15T06:11:26.864Z,0.9071
2023-04-15T06:12:35.027Z,0.9143
2023-04-15T06:13:43.063Z,0.9143
2023-04-15T06:14:51.164Z,0.8286
2023-04-15T06:15:59.307Z,0.9071
2023-04-15T06:17:07.187Z,1.0286
2023-04-15T06:18:15.543Z,0.9143
2023-04-15T06:19:23.465Z,0.8429
2023-04-15T06:20:31.623Z,0.9357
2023-04-15T06:21:39.592Z,0.9286
2023-04-15T06:22:47.517Z,0.8786
2023-04-15T06:23:55.798Z,0.8857
2023-04-15T06:25:03.734Z,0.9357
2023-04-15T06:26:11.850Z,0.8143
2023-04-15T06:27:19.868Z,0.8786
2023-04-15T06:28:27.895Z,0.9714
2023-04-15T06:29:36.190Z,0.9429
2023-04-15T06:30:44.029Z,1.0643
2023-04-15T06:31:52.174Z,1.0143
2023-04-15T06:33:00.357Z,1.0286
2023-04-15T06:34:08.266Z,0.9071
2023-04-15T06:35:16.422Z,1.0071
2023-04-15T06:36:24.360Z,1.0000
2023-04-15T06:37:32.437Z,1.1071
2023-04-15T06:38:40.563Z,1.0357
2023-04-15T06:39:48.634Z,0.9714
2023-04-15T06:40:56.705Z,1.0643
2023-04-15T06:42:04.753Z,1.1214
2023-04-15T06:43:12.764Z,0.9786
2023-04-15T06:44:20.876Z,0.9500
2023-04-15T06:45:29.007Z,0.9286
2023-04-15T06:46:36.979Z,0.9357
2023-04-15T06:47:45.214Z,1.0571
2023-04-15T06:48:53.054Z,1.0929
2023-04-15T06:50:01.161Z,1.2071
2023-04-15T06:51:09.256Z,1.0857
2023-04-15T06:52:17.245Z,1.4000
2023-04-15T06:53:25.390Z,1.2000
2023-04-15T06:54:33.437Z,1.2071
2023-04-15T06:55:41.474Z,1.1643
2023-04-15T06:56:49.624Z,1.0857
2023-04-15T06:57:57.737Z,1.0643
2023-04-15T06:59:05.754Z,1.1143
2023-04-15T07:00:13.710Z,1.1286
2023-04-15T07:01:21.889Z,1.1571
2023-04-15T07:02:29.984Z,1.2571
2023-04-15T07:03:38.059Z,0.9000
2023-04-15T07:04:46.069Z,1.2000
2023-04-15T07:05:54.126Z,1.2143
2023-04-15T07:07:02.224Z,1.2214
2023-04-15T07:08:10.378Z,1.3071
2023-04-15T07:09:18.263Z,1.2714
2023-04-15T07:10:26.485Z,1.2000
2023-04-15T07:11:34.418Z,1.3643
2023-04-15T07:12:42.486Z,1.3286
2023-04-15T07:13:50.655Z,1.2500
2023-04-15T07:14:58.524Z,1.2643
2023-04-15T07:16:06.642Z,1.3143
2023-04-15T07:17:14.778Z,1.0929
2023-04-15T07:18:22.855Z,1.2643
2023-04-15T07:19:30.949Z,1.3429
2023-04-15T07:20:38.955Z,1.4643
2023-04-15T07:21:46.999Z,1.2357
2023-04-15T07:22:55.059Z,1.2429
2023-04-15T07:24:03.115Z,1.2500
2023-04-15T07:25:11.149Z,1.3071
2023-04-15T07:26:19.150Z,1.3214
2023-04-15T07:27:27.209Z,1.3643
2023-04-15T07:28:35.459Z,1.5143
2023-04-15T07:29:43.486Z,1.4143
2023-04-15T07:30:51.499Z,1.4429
2023-04-15T07:31:59.479Z,1.5857
2023-04-15T07:33:07.693Z,1.5286
2023-04-15T07:34:15.803Z,1.6286
2023-04-15T07:35:23.769Z,1.7143
2023-04-15T07:36:31.941Z,1.6143
2023-04-15T07:37:39.876Z,1.5857
2023-04-15T07:38:47.860Z,1.7786
2023-04-15T07:39:55.999Z,1.8357
2023-04-15T07:41:04.120Z,1.7786
2023-04-15T07:42:12.217Z,1.5929
2023-04-15T07:43:20.228Z,1.5214
2023-04-15T07:44:28.457Z,1.7500
2023-04-15T07:45:36.648Z,1.6571
2023-04-15T07:46:44.390Z,1.7429
2023-04-15T07:47:52.481Z,1.7857
2023-04-15T07:49:01.018Z,1.6857
2023-04-15T07:50:08.574Z,1.6500
2023-04-15T07:51:16.617Z,1.7571
2023-04-15T07:52:24.583Z,1.5071
2023-04-15T07:53:32.893Z,1.7143
2023-04-15T07:54:40.929Z,1.5429
2023-04-15T07:55:48.850Z,1.6286
2023-04-15T07:56:57.018Z,1.8571
2023-04-15T07:58:05.024Z,1.5571
2023-04-15T07:59:13.106Z,1.5143
2023-04-15T08:00:21.137Z,1.7071
2023-04-15T08:01:29.186Z,1.5857
2023-04-15T08:02:38.982Z,1.7429
2023-04-15T08:03:50.272Z,1.6800
2023-04-15T08:04:58.446Z,1.9357
2023-04-15T08:06:06.296Z,1.8000
2023-04-15T08:07:14.346Z,1.7500
2023-04-15T08:08:22.442Z,1.7000
2023-04-15T08:09:30.623Z,1.5714
2023-04-15T08:10:38.484Z,1.7714
2023-04-15T08:11:46.615Z,1.8000
2023-04-15T08:12:54.789Z,1.4857
2023-04-15T08:14:02.889Z,1.7857
2023-04-15T08:15:10.845Z,1.7143
2023-04-15T08:16:18.975Z,1.7071
2023-04-15T08:17:27.000Z,1.5429
2023-04-15T08:18:34.983Z,1.5000
2023-04-15T08:19:43.136Z,1.7143
2023-04-15T08:20:51.265Z,1.8214
2023-04-15T08:21:59.206Z,1.5929
2023-04-15T08:23:07.261Z,1.7357
2023-04-15T08:24:15.288Z,1.8357
2023-04-15T08:25:23.396Z,1.8071
2023-04-15T08:26:31.441Z,1.6071
2023-04-15T08:27:39.516Z,1.6286
2023-04-15T08:28:47.588Z,1.7286
2023-04-15T08:29:55.754Z,1.7500
2023-04-15T08:31:03.644Z,1.7000
2023-04-15T08:32:11.984Z,1.7214
2023-04-15T08:33:19.827Z,1.7000
2023-04-15T08:34:27.913Z,1.6071
2023-04-15T08:35:35.946Z,1.6143
2023-04-15T08:36:44.062Z,1.6714
2023-04-15T08:37:52.127Z,1.6286
2023-04-15T08:39:00.355Z,1.6786
2023-04-15T08:40:08.350Z,1.5857
2023-04-15T08:41:16.376Z,1.6500
2023-04-15T08:42:24.371Z,1.5429
2023-04-15T08:43:32.510Z,1.7571
2023-04-15T08:44:40.522Z,1.6786
2023-04-15T08:45:48.632Z,1.5214
2023-04-15T08:46:56.821Z,1.6286
2023-04-15T08:48:04.774Z,1.5571
2023-04-15T08:49:12.897Z,1.8000
2023-04-15T08:50:20.735Z,1.8143
2023-04-15T08:51:29.078Z,1.4786
2023-04-15T08:52:36.970Z,1.5571
2023-04-15T08:53:45.154Z,1.5643
2023-04-15T08:54:53.138Z,1.5357
2023-04-15T08:56:01.079Z,1.5143
2023-04-15T08:57:09.179Z,1.7000
2023-04-15T08:58:17.287Z,1.5357
2023-04-15T08:59:25.357Z,1.3929
2023-04-15T09:00:33.439Z,1.5643
2023-04-15T09:01:41.427Z,1.3786
2023-04-15T09:02:49.855Z,1.2429
2023-04-15T09:03:57.692Z,1.4643
2023-04-15T09:05:05.650Z,1.4214
2023-04-15T09:06:13.778Z,1.8286
2023-04-15T09:07:21.777Z,1.7286
2023-04-15T09:08:29.862Z,1.6214
2023-04-15T09:09:38.083Z,1.6143
2023-04-15T09:10:45.946Z,1.7929
2023-04-15T09:11:54.095Z,1.8714
2023-04-15T09:13:02.128Z,1.9929
2023-04-15T09:14:10.157Z,1.9714
2023-04-15T09:15:18.206Z,1.9214
2023-04-15T09:16:26.343Z,1.8357
2023-04-15T09:17:34.591Z,1.9071
2023-04-15T09:18:42.415Z,1.8357
2023-04-15T09:19:50.455Z,2.0714
2023-04-15T09:20:58.631Z,1.8929
2023-04-15T09:22:06.712Z,1.6786
2023-04-15T09:23:14.640Z,1.8357
2023-04-15T09:24:22.802Z,1.8929
2023-04-15T09:25:32.815Z,1.7714
2023-04-15T09:26:43.816Z,1.7333
2023-04-15T09:27:51.690Z,1.8714
2023-04-15T09:28:59.909Z,1.8643
2023-04-15T09:30:07.870Z,1.9357
2023-04-15T09:31:16.009Z,1.8643
2023-04-15T09:32:24.114Z,1.9429
2023-04-15T09:33:32.119Z,1.9143
2023-04-15T09:34:40.054Z,1.8857
2023-04-15T09:35:48.215Z,1.8357
2023-04-15T09:36:56.384Z,2.0143
2023-04-15T09:38:04.329Z,2.2071
2023-04-15T09:39:12.475Z,1.6714
2023-04-15T09:40:20.383Z,1.6143
2023-04-15T09:41:28.569Z,1.5643
2023-04-15T09:42:36.716Z,1.4357
2023-04-15T09:43:44.813Z,1.5214
2023-04-15T09:44:52.705Z,1.4571
2023-04-15T09:46:00.793Z,1.7714
2023-04-15T09:47:08.904Z,1.5714
2023-04-15T09:48:16.821Z,1.4714
2023-04-15T09:49:25.077Z,1.5143
2023-04-15T09:50:32.994Z,1.4714
2023-04-15T09:51:42.185Z,1.5214
2023-04-15T09:52:49.150Z,1.8143
2023-04-15T09:53:57.131Z,1.7357
2023-04-15T09:55:05.191Z,1.4286
2023-04-15T09:56:13.339Z,1.3429
2023-04-15T09:57:21.407Z,1.2571
2023-04-15T09:58:29.595Z,1.7071
2023-04-15T09:59:37.417Z,1.4357
2023-04-15T10:00:45.487Z,1.1571
2023-04-15T10:01:53.661Z,1.5429
2023-04-15T10:03:01.745Z,1.1143
2023-04-15T10:04:09.868Z,1.3214
2023-04-15T10:05:17.733Z,1.1786
2023-04-15T10:06:25.784Z,1.1286
2023-04-15T10:07:33.971Z,1.1071
2023-04-15T10:08:42.011Z,1.2143
2023-04-15T10:09:50.207Z,1.4571
2023-04-15T10:10:58.126Z,1.3357
2023-04-15T10:12:06.109Z,1.3357
2023-04-15T10:13:14.408Z,1.3643
2023-04-15T10:14:22.339Z,1.6000
2023-04-15T10:15:30.281Z,1.3214
2023-04-15T10:16:38.416Z,1.4571
2023-04-15T10:17:46.535Z,1.7857
2023-04-15T10:18:54.579Z,1.5357
2023-04-15T10:20:02.526Z,1.5500
2023-04-15T10:21:10.888Z,1.4500
2023-04-15T10:22:18.737Z,1.5786
2023-04-15T10:23:26.791Z,1.5357
2023-04-15T10:24:34.943Z,1.6071
2023-04-15T10:25:42.858Z,1.5643
2023-04-15T10:26:50.882Z,1.5571
2023-04-15T10:27:59.088Z,1.3571
2023-04-15T10:29:07.193Z,1.5714
2023-04-15T10:30:15.230Z,1.7429
2023-04-15T10:31:23.323Z,1.7214
2023-04-15T10:32:31.340Z,1.6357
2023-04-15T10:33:39.359Z,1.7500
2023-04-15T10:34:47.410Z,1.6429
2023-04-15T10:35:55.590Z,1.6786
2023-04-15T10:37:03.760Z,1.4286
2023-04-15T10:38:11.616Z,1.3214
2023-04-15T10:39:19.721Z,1.4500
2023-04-15T10:40:27.720Z,1.3357
2023-04-15T10:41:35.832Z,1.3500
2023-04-15T10:42:43.856Z,1.3429
2023-04-15T10:43:51.982Z,1.4571
2023-04-15T10:44:59.999Z,1.5857
2023-04-15T10:46:08.107Z,1.5429
2023-04-15T10:47:16.151Z,1.4000
2023-04-15T10:48:24.409Z,1.6500
2023-04-15T10:49:32.342Z,1.7286
2023-04-15T10:50:40.376Z,1.8071
2023-04-15T10:51:48.376Z,1.8214
2023-04-15T10:52:56.497Z,1.8429
2023-04-15T10:54:04.724Z,1.8929
2023-04-15T10:55:12.706Z,1.9214
2023-04-15T10:56:20.656Z,1.8429
2023-04-15T10:57:28.765Z,1.8857
2023-04-15T10:58:36.848Z,1.9286
2023-04-15T10:59:44.898Z,1.9286
2023-04-15T11:00:52.985Z,1.8643
2023-04-15T11:02:01.081Z,1.8500
2023-04-15T11:03:09.472Z,1.8214
2023-04-15T11:04:17.151Z,1.7857
2023-04-15T11:05:25.164Z,2.0571
2023-04-15T11:06:33.446Z,1.7357
2023-04-15T11:07:41.300Z,1.7571
2023-04-15T11:08:49.418Z,1.7857
2023-04-15T11:09:57.507Z,1.6786
2023-04-15T11:11:05.492Z,1.7214
2023-04-15T11:12:13.663Z,1.8643
2023-04-15T11:13:21.613Z,1.7929
2023-04-15T11:14:29.826Z,1.6571
2023-04-15T11:15:37.709Z,1.7214
2023-04-15T11:16:45.869Z,1.7286
2023-04-15T11:17:54.115Z,1.7143
2023-04-15T11:19:01.961Z,1.5357
2023-04-15T11:20:10.011Z,1.7643
2023-04-15T11:21:18.207Z,1.9429
2023-04-15T11:22:26.100Z,1.9643
2023-04-15T11:23:34.310Z,1.9286
2023-04-15T11:24:42.285Z,1.7571
2023-04-15T11:25:50.312Z,1.8571
2023-04-15T11:26:58.352Z,1.7429
2023-04-15T11:28:06.393Z,1.8786
2023-04-15T11:29:14.555Z,1.7571
2023-04-15T11:30:22.536Z,1.9143
2023-04-15T11:31:30.608Z,1.6643
2023-04-15T11:32:38.777Z,1.8000
2023-04-15T11:33:46.711Z,1.7714
2023-04-15T11:34:54.768Z,1.7929
2023-04-15T11:36:02.919Z,1.9214
2023-04-15T11:37:10.891Z,2.0000
2023-04-15T11:38:18.947Z,1.8929
2023-04-15T11:39:27.095Z,1.8714
2023-04-15T11:40:35.162Z,1.7786
2023-04-15T11:41:43.035Z,1.6929
2023-04-15T11:42:51.254Z,1.6929
2023-04-15T11:43:59.219Z,1.8929
2023-04-15T11:45:07.303Z,1.8143
2023-04-15T11:46:15.424Z,1.7500
2023-04-15T11:47:23.335Z,1.6214
2023-04-15T11:48:31.464Z,2.0286
2023-04-15T11:49:39.579Z,1.7714
2023-04-15T11:50:47.695Z,1.8143
2023-04-15T11:51:55.566Z,1.8857
2023-04-15T11:53:04.373Z,1.7929
2023-04-15T11:54:11.896Z,1.9071
2023-04-15T11:55:19.851Z,1.8786
2023-04-15T11:56:27.911Z,1.8357
2023-04-15T11:57:36.035Z,1.9500
2023-04-15T11:58:44.058Z,2.0071
2023-04-15T11:59:52.220Z,1.9786
2023-04-15T12:01:00.129Z,1.8357
2023-04-15T12:02:08.282Z,1.9857
2023-04-15T12:03:16.436Z,1.6857
2023-04-15T12:04:25.933Z,1.7500
2023-04-15T12:05:32.418Z,1.7857
2023-04-15T12:06:40.450Z,1.7500
2023-04-15T12:07:48.517Z,1.7714
2023-04-15T12:08:56.808Z,1.9500
2023-04-15T12:10:04.685Z,1.8143
2023-04-15T12:11:12.711Z,1.5643
2023-04-15T12:12:20.818Z,1.6000
2023-04-15T12:13:28.806Z,1.4786
2023-04-15T12:14:36.875Z,1.5429
2023-04-15T12:15:45.028Z,1.6714
2023-04-15T12:16:53.007Z,1.5214
2023-04-15T12:18:01.089Z,1.5500
2023-04-15T12:19:09.125Z,1.4857
2023-04-15T12:20:17.273Z,1.4286
2023-04-15T12:21:25.354Z,1.4857
2023-04-15T12:22:33.317Z,1.3786
2023-04-15T12:23:41.501Z,1.4429
2023-04-15T12:24:49.466Z,1.3000
2023-04-15T12:25:57.535Z,1.4429
2023-04-15T12:27:05.724Z,1.1929
2023-04-15T12:28:13.607Z,1.2857
2023-04-15T12:29:21.661Z,1.3143
2023-04-15T12:30:29.869Z,1.2714
2023-04-15T12:31:37.967Z,1.2357
2023-04-15T12:32:45.865Z,1.1500
2023-04-15T12:33:53.910Z,1.2429
2023-04-15T12:35:02.076Z,1.4786
2023-04-15T12:36:10.054Z,1.3500
2023-04-15T12:37:18.110Z,1.2786
2023-04-15T12:38:26.298Z,1.2429
2023-04-15T12:39:34.279Z,1.4571
2023-04-15T12:40:42.322Z,1.1143
2023-04-15T12:41:50.426Z,1.3000
2023-04-15T12:42:58.409Z,1.0786
2023-04-15T12:44:06.710Z,1.0357
2023-04-15T12:45:14.523Z,1.1929
2023-04-15T12:46:22.740Z,1.2000
2023-04-15T12:47:30.713Z,1.2214
2023-04-15T12:48:38.738Z,1.0571
2023-04-15T12:49:46.800Z,1.0786
2023-04-15T12:50:54.842Z,1.1000
2023-04-15T12:52:02.971Z,1.1929
2023-04-15T12:53:11.079Z,1.1143
2023-04-15T12:54:19.102Z,1.0143
2023-04-15T12:55:27.144Z,0.9786
2023-04-15T12:56:35.288Z,0.8571
2023-04-15T12:57:43.257Z,0.9000
2023-04-15T12:58:51.281Z,0.9214
2023-04-15T12:59:59.415Z,0.9357
2023-04-15T13:01:07.410Z,0.8714
2023-04-15T13:02:15.599Z,0.7786
2023-04-15T13:03:23.832Z,0.9429
2023-04-15T13:04:31.808Z,0.9357
2023-04-15T13:05:39.705Z,0.9357
2023-04-15T13:06:47.791Z,1.1786
2023-04-15T13:07:55.888Z,1.1857
2023-04-15T13:09:05.239Z,1.0714
2023-04-15T13:10:12.099Z,1.0643
2023-04-15T13:11:20.013Z,1.0571
2023-04-15T13:12:28.063Z,0.9571
2023-04-15T13:13:36.101Z,1.0000
2023-04-15T13:14:44.149Z,1.0857
2023-04-15T13:15:52.143Z,1.1643
2023-04-15T13:17:00.229Z,0.9000
2023-04-15T13:18:08.368Z,0.9857
2023-04-15T13:19:16.508Z,0.9929
2023-04-15T13:20:24.577Z,1.0000
2023-04-15T13:21:32.555Z,0.9929
2023-04-15T13:22:40.699Z,1.1714
2023-04-15T13:23:48.652Z,1.1000
2023-04-15T13:24:56.723Z,1.1214
2023-04-15T13:26:04.826Z,0.9500
2023-04-15T13:27:12.886Z,0.8714
2023-04-15T13:28:20.995Z,0.9786
2023-04-15T13:29:28.963Z,1.1000
2023-04-15T13:30:37.056Z,0.8857
2023-04-15T13:31:45.136Z,1.0429
2023-04-15T13:32:53.182Z,0.9500
2023-04-15T13:34:01.359Z,0.9929
2023-04-15T13:35:09.336Z,1.0714
2023-04-15T13:36:17.329Z,0.9429
2023-04-15T13:37:25.526Z,0.8643
2023-04-15T13:38:33.474Z,0.9571
2023-04-15T13:39:41.516Z,1.0643
2023-04-15T13:40:49.679Z,1.0429
2023-04-15T13:41:57.633Z,1.0500
2023-04-15T13:43:05.800Z,1.1429
2023-04-15T13:44:13.771Z,1.0000
2023-04-15T13:45:21.852Z,1.0214
2023-04-15T13:46:29.997Z,1.0571
2023-04-15T13:47:38.079Z,0.9786
2023-04-15T13:48:46.118Z,0.9429
2023-04-15T13:49:54.107Z,0.9357
2023-04-15T13:51:02.161Z,1.0143
2023-04-15T13:52:10.268Z,0.8500
2023-04-15T13:53:18.267Z,0.8571
2023-04-15T13:54:26.355Z,0.8286
2023-04-15T13:55:39.306Z,0.7800
2023-04-15T13:56:47.375Z,0.7000
2023-04-15T13:57:55.440Z,0.9214
2023-04-15T13:59:03.502Z,0.9071
2023-04-15T14:00:11.552Z,0.7714
2023-04-15T14:01:19.651Z,0.9286
2023-04-15T14:02:27.897Z,0.6286
2023-04-15T14:03:36.028Z,0.8357
2023-04-15T14:04:43.987Z,0.7571
2023-04-15T14:05:51.870Z,0.8214
2023-04-15T14:06:59.907Z,0.8357
2023-04-15T14:08:07.921Z,0.7786
2023-04-15T14:09:16.036Z,0.8571